sensor_id;sensor_type;location;lat;lon;timestamp;pressure;altitude;pressure_sealevel;temperature;humidity
22753;BME280;11543;43.144;24.684;2023-06-22T00:05:03;99028.84;;;25.00;58.44
22753;BME280;11543;43.144;24.684;2023-06-22T00:07:29;99031.63;;;24.76;59.57
22753;BME280;11543;43.144;24.684;2023-06-22T00:09:54;99037.50;;;24.68;59.77
22753;BME280;11543;43.144;24.684;2023-06-22T00:12:20;99023.91;;;24.62;59.60
22753;BME280;11543;43.144;24.684;2023-06-22T00:14:45;99031.78;;;24.58;59.67
22753;BME280;11543;43.144;24.684;2023-06-22T00:17:11;99040.25;;;24.57;60.05
22753;BME280;11543;43.144;24.684;2023-06-22T00:19:36;99036.69;;;24.44;60.59
22753;BME280;11543;43.144;24.684;2023-06-22T00:22:05;99035.16;;;24.37;60.51
22753;BME280;11543;43.144;24.684;2023-06-22T00:24:31;99047.66;;;24.33;60.71
22753;BME280;11543;43.144;24.684;2023-06-22T00:26:56;99035.56;;;24.10;61.34
22753;BME280;11543;43.144;24.684;2023-06-22T00:29:22;99043.69;;;24.05;61.57
22753;BME280;11543;43.144;24.684;2023-06-22T00:31:47;99034.03;;;24.03;61.52
22753;BME280;11543;43.144;24.684;2023-06-22T00:34:13;99031.03;;;24.04;61.32
22753;BME280;11543;43.144;24.684;2023-06-22T00:36:38;99050.59;;;24.20;61.17
22753;BME280;11543;43.144;24.684;2023-06-22T00:39:06;99022.00;;;24.15;61.30
22753;BME280;11543;43.144;24.684;2023-06-22T00:41:32;99038.91;;;24.12;61.44
22753;BME280;11543;43.144;24.684;2023-06-22T00:43:58;99036.06;;;24.07;61.53
22753;BME280;11543;43.144;24.684;2023-06-22T00:46:24;99035.56;;;24.10;61.43
22753;BME280;11543;43.144;24.684;2023-06-22T00:48:51;99025.69;;;23.98;61.99
22753;BME280;11543;43.144;24.684;2023-06-22T00:51:17;99026.50;;;23.98;61.67
22753;BME280;11543;43.144;24.684;2023-06-22T00:53:50;99026.00;;;23.78;62.52
22753;BME280;11543;43.144;24.684;2023-06-22T00:56:17;99019.34;;;23.74;62.79
22753;BME280;11543;43.144;24.684;2023-06-22T00:58:45;99021.47;;;23.72;62.59
22753;BME280;11543;43.144;24.684;2023-06-22T06:44:41;99143.31;;;28.28;54.20
22753;BME280;11543;43.144;24.684;2023-06-22T06:47:07;99145.28;;;28.33;54.52
22753;BME280;11543;43.144;24.684;2023-06-22T06:49:33;99153.38;;;28.44;54.88
22753;BME280;11543;43.144;24.684;2023-06-22T06:51:58;99151.78;;;28.53;55.01
22753;BME280;11543;43.144;24.684;2023-06-22T06:54:24;99148.59;;;28.67;54.30
22753;BME280;11543;43.144;24.684;2023-06-22T06:56:49;99149.25;;;28.79;53.67
22753;BME280;11543;43.144;24.684;2023-06-22T06:59:15;99152.16;;;28.99;52.64
22753;BME280;11543;43.144;24.684;2023-06-22T07:01:41;99152.28;;;29.25;51.19
22753;BME280;11543;43.144;24.684;2023-06-22T07:04:09;99162.63;;;29.44;52.26
22753;BME280;11543;43.144;24.684;2023-06-22T07:06:35;99143.31;;;29.50;51.84
22753;BME280;11543;43.144;24.684;2023-06-22T07:09:00;99157.47;;;29.68;51.59
22753;BME280;11543;43.144;24.684;2023-06-22T07:11:26;99153.09;;;29.83;51.27
22753;BME280;11543;43.144;24.684;2023-06-22T07:13:52;99143.13;;;29.87;50.81
22753;BME280;11543;43.144;24.684;2023-06-22T07:16:17;99125.44;;;29.93;49.33
22753;BME280;11543;43.144;24.684;2023-06-22T07:31:25;99139.13;;;31.55;44.75
22753;BME280;11543;43.144;24.684;2023-06-22T07:33:51;99135.28;;;31.51;44.94
22753;BME280;11543;43.144;24.684;2023-06-22T07:36:17;99140.28;;;31.44;45.73
22753;BME280;11543;43.144;24.684;2023-06-22T07:38:43;99138.97;;;31.26;44.83
22753;BME280;11543;43.144;24.684;2023-06-22T07:41:09;99137.06;;;31.22;45.13
22753;BME280;11543;43.144;24.684;2023-06-22T07:43:34;99132.56;;;31.36;44.80
22753;BME280;11543;43.144;24.684;2023-06-22T07:46:03;99153.91;;;31.35;45.00
22753;BME280;11543;43.144;24.684;2023-06-22T07:48:29;99148.69;;;31.29;44.71
22753;BME280;11543;43.144;24.684;2023-06-22T07:50:55;99152.00;;;31.31;44.98
22753;BME280;11543;43.144;24.684;2023-06-22T07:53:20;99148.69;;;31.29;44.81
22753;BME280;11543;43.144;24.684;2023-06-22T07:55:47;99138.69;;;31.33;44.38
22753;BME280;11543;43.144;24.684;2023-06-22T07:58:13;99151.91;;;31.51;44.10
22753;BME280;11543;43.144;24.684;2023-06-22T08:00:38;99144.69;;;31.55;44.69
22753;BME280;11543;43.144;24.684;2023-06-22T08:03:04;99147.38;;;31.76;45.01
22753;BME280;11543;43.144;24.684;2023-06-22T08:05:30;99147.16;;;32.11;43.62
22753;BME280;11543;43.144;24.684;2023-06-22T08:07:56;99132.56;;;32.35;42.20
22753;BME280;11543;43.144;24.684;2023-06-22T08:10:22;99137.34;;;32.58;42.82
22753;BME280;11543;43.144;24.684;2023-06-22T08:12:48;99142.47;;;32.75;42.87
22753;BME280;11543;43.144;24.684;2023-06-22T08:15:14;99132.47;;;32.79;41.87
22753;BME280;11543;43.144;24.684;2023-06-22T08:17:40;99140.06;;;32.97;42.41
22753;BME280;11543;43.144;24.684;2023-06-22T08:20:06;99132.97;;;33.10;43.49
22753;BME280;11543;43.144;24.684;2023-06-22T08:22:35;99124.81;;;33.18;41.42
22753;BME280;11543;43.144;24.684;2023-06-22T08:25:02;99146.78;;;33.44;42.71
22753;BME280;11543;43.144;24.684;2023-06-22T08:27:29;99131.03;;;33.34;42.96
22753;BME280;11543;43.144;24.684;2023-06-22T08:29:57;99130.97;;;33.39;43.19
22753;BME280;11543;43.144;24.684;2023-06-22T08:32:24;99130.69;;;33.60;42.39
22753;BME280;11543;43.144;24.684;2023-06-22T08:34:55;99115.66;;;33.61;41.48
22753;BME280;11543;43.144;24.684;2023-06-22T08:37:21;99117.91;;;33.82;41.69
22753;BME280;11543;43.144;24.684;2023-06-22T08:39:50;99129.94;;;34.15;40.61
22753;BME280;11543;43.144;24.684;2023-06-22T08:42:16;99124.09;;;34.31;39.66
22753;BME280;11543;43.144;24.684;2023-06-22T08:44:41;99126.66;;;34.46;38.69
22753;BME280;11543;43.144;24.684;2023-06-22T08:47:07;99112.03;;;34.54;38.32
22753;BME280;11543;43.144;24.684;2023-06-22T08:49:34;99114.09;;;34.62;39.18
22753;BME280;11543;43.144;24.684;2023-06-22T08:52:00;99097.00;;;34.69;39.03
22753;BME280;11543;43.144;24.684;2023-06-22T08:54:25;99103.94;;;34.71;40.03
22753;BME280;11543;43.144;24.684;2023-06-22T08:56:51;99122.38;;;34.67;38.94
22753;BME280;11543;43.144;24.684;2023-06-22T08:59:16;99113.53;;;34.79;38.87
22753;BME280;11543;43.144;24.684;2023-06-22T09:01:42;99112.66;;;34.84;40.09
22753;BME280;11543;43.144;24.684;2023-06-22T09:04:11;99109.03;;;34.97;38.53
22753;BME280;11543;43.144;24.684;2023-06-22T09:06:38;99109.25;;;35.14;37.94
22753;BME280;11543;43.144;24.684;2023-06-22T09:09:10;99099.53;;;35.25;37.41
22753;BME280;11543;43.144;24.684;2023-06-22T09:11:36;99107.28;;;35.28;36.40
22753;BME280;11543;43.144;24.684;2023-06-22T09:14:01;99113.81;;;35.37;38.21
22753;BME280;11543;43.144;24.684;2023-06-22T09:16:27;99101.63;;;35.33;37.60
22753;BME280;11543;43.144;24.684;2023-06-22T09:18:52;99092.19;;;35.43;38.36
22753;BME280;11543;43.144;24.684;2023-06-22T09:21:19;99107.34;;;35.78;37.39
22753;BME280;11543;43.144;24.684;2023-06-22T09:23:44;99097.00;;;35.92;36.91
22753;BME280;11543;43.144;24.684;2023-06-22T09:26:12;99108.88;;;36.20;36.05
22753;BME280;11543;43.144;24.684;2023-06-22T09:28:38;99098.53;;;36.21;35.42
22753;BME280;11543;43.144;24.684;2023-06-22T09:31:03;99099.94;;;36.32;36.40
22753;BME280;11543;43.144;24.684;2023-06-22T09:33:28;99102.19;;;36.44;35.97
22753;BME280;11543;43.144;24.684;2023-06-22T09:35:54;99086.66;;;36.60;34.98
22753;BME280;11543;43.144;24.684;2023-06-22T09:38:19;99099.78;;;36.82;36.45
22753;BME280;11543;43.144;24.684;2023-06-22T09:40:46;99096.72;;;36.92;36.98
22753;BME280;11543;43.144;24.684;2023-06-22T09:43:12;99086.22;;;37.06;36.22
22753;BME280;11543;43.144;24.684;2023-06-22T09:45:37;99098.78;;;37.17;35.81
22753;BME280;11543;43.144;24.684;2023-06-22T09:48:03;99093.09;;;37.31;35.37
22753;BME280;11543;43.144;24.684;2023-06-22T09:50:28;99099.38;;;37.37;33.64
22753;BME280;11543;43.144;24.684;2023-06-22T09:52:54;99092.63;;;37.38;33.86
22753;BME280;11543;43.144;24.684;2023-06-22T09:55:23;99102.03;;;37.50;34.37
22753;BME280;11543;43.144;24.684;2023-06-22T09:57:49;99107.00;;;37.62;33.42
22753;BME280;11543;43.144;24.684;2023-06-22T10:00:16;99097.09;;;37.56;33.95
22753;BME280;11543;43.144;24.684;2023-06-22T10:02:44;99096.94;;;37.44;34.94
22753;BME280;11543;43.144;24.684;2023-06-22T10:05:10;99104.66;;;37.38;35.30
22753;BME280;11543;43.144;24.684;2023-06-22T10:07:36;99107.16;;;37.57;33.84
22753;BME280;11543;43.144;24.684;2023-06-22T10:10:06;99094.63;;;37.46;34.41
22753;BME280;11543;43.144;24.684;2023-06-22T10:12:31;99097.25;;;37.42;33.52
22753;BME280;11543;43.144;24.684;2023-06-22T10:14:57;99100.72;;;37.48;32.52
22753;BME280;11543;43.144;24.684;2023-06-22T10:17:22;99086.38;;;37.41;34.26
22753;BME280;11543;43.144;24.684;2023-06-22T10:19:48;99083.75;;;37.36;33.80
22753;BME280;11543;43.144;24.684;2023-06-22T10:22:14;99089.53;;;37.48;31.76
22753;BME280;11543;43.144;24.684;2023-06-22T10:24:39;99095.34;;;37.77;31.90
22753;BME280;11543;43.144;24.684;2023-06-22T10:27:10;99081.34;;;37.94;31.57
22753;BME280;11543;43.144;24.684;2023-06-22T10:29:36;99082.81;;;38.01;30.87
22753;BME280;11543;43.144;24.684;2023-06-22T10:32:01;99091.78;;;38.20;30.61
22753;BME280;11543;43.144;24.684;2023-06-22T10:34:27;99082.31;;;38.42;29.73
22753;BME280;11543;43.144;24.684;2023-06-22T10:36:52;99076.38;;;38.43;30.13
22753;BME280;11543;43.144;24.684;2023-06-22T10:39:18;99066.03;;;38.35;29.70
22753;BME280;11543;43.144;24.684;2023-06-22T10:41:44;99067.63;;;38.53;28.71
22753;BME280;11543;43.144;24.684;2023-06-22T10:44:11;99083.44;;;38.67;29.72
22753;BME280;11543;43.144;24.684;2023-06-22T10:46:37;99077.84;;;38.67;29.75
22753;BME280;11543;43.144;24.684;2023-06-22T10:49:03;99075.69;;;38.64;29.30
22753;BME280;11543;43.144;24.684;2023-06-22T10:51:28;99083.25;;;38.72;29.46
22753;BME280;11543;43.144;24.684;2023-06-22T10:53:54;99070.56;;;38.57;30.68
22753;BME280;11543;43.144;24.684;2023-06-22T10:56:19;99072.56;;;38.56;31.60
22753;BME280;11543;43.144;24.684;2023-06-22T10:58:45;99059.84;;;38.59;30.58
22753;BME280;11543;43.144;24.684;2023-06-22T11:01:11;99058.88;;;38.64;30.00
22753;BME280;11543;43.144;24.684;2023-06-22T11:03:36;99066.91;;;38.74;29.53
22753;BME280;11543;43.144;24.684;2023-06-22T11:06:05;99072.97;;;38.84;29.58
22753;BME280;11543;43.144;24.684;2023-06-22T11:08:31;99070.66;;;38.86;31.38
22753;BME280;11543;43.144;24.684;2023-06-22T11:10:57;99063.03;;;39.04;32.32
22753;BME280;11543;43.144;24.684;2023-06-22T11:13:23;99065.25;;;39.20;31.54
22753;BME280;11543;43.144;24.684;2023-06-22T11:15:50;99070.00;;;39.28;32.29
22753;BME280;11543;43.144;24.684;2023-06-22T11:18:15;99079.28;;;39.20;32.63
22753;BME280;11543;43.144;24.684;2023-06-22T11:20:42;99071.56;;;39.16;31.94
22753;BME280;11543;43.144;24.684;2023-06-22T11:23:07;99065.34;;;39.32;31.54
22753;BME280;11543;43.144;24.684;2023-06-22T11:25:33;99073.97;;;39.56;31.61
22753;BME280;11543;43.144;24.684;2023-06-22T11:28:03;99074.72;;;39.65;31.71
22753;BME280;11543;43.144;24.684;2023-06-22T11:30:29;99047.59;;;39.69;31.11
22753;BME280;11543;43.144;24.684;2023-06-22T11:32:56;99059.66;;;39.91;30.46
22753;BME280;11543;43.144;24.684;2023-06-22T11:35:22;99060.34;;;39.88;31.17
22753;BME280;11543;43.144;24.684;2023-06-22T11:37:48;99053.53;;;39.97;29.98
22753;BME280;11543;43.144;24.684;2023-06-22T11:40:13;99061.19;;;40.09;31.11
22753;BME280;11543;43.144;24.684;2023-06-22T11:42:39;99059.84;;;40.27;31.07
22753;BME280;11543;43.144;24.684;2023-06-22T11:45:07;99052.00;;;40.33;29.83
22753;BME280;11543;43.144;24.684;2023-06-22T11:47:32;99044.22;;;40.51;29.82
22753;BME280;11543;43.144;24.684;2023-06-22T11:49:59;99037.56;;;40.67;30.01
22753;BME280;11543;43.144;24.684;2023-06-22T11:52:25;99037.13;;;40.78;29.08
22753;BME280;11543;43.144;24.684;2023-06-22T11:54:52;99035.88;;;40.87;29.85
22753;BME280;11543;43.144;24.684;2023-06-22T11:57:18;99039.28;;;40.93;28.37
22753;BME280;11543;43.144;24.684;2023-06-22T11:59:43;99042.69;;;40.98;29.80
22753;BME280;11543;43.144;24.684;2023-06-22T12:02:08;99039.16;;;40.89;29.43
22753;BME280;11543;43.144;24.684;2023-06-22T12:04:34;99039.41;;;40.96;29.18
22753;BME280;11543;43.144;24.684;2023-06-22T12:07:00;99034.69;;;40.76;30.08
22753;BME280;11543;43.144;24.684;2023-06-22T12:09:26;99046.19;;;40.83;28.76
22753;BME280;11543;43.144;24.684;2023-06-22T12:11:51;99047.06;;;40.63;28.73
22753;BME280;11543;43.144;24.684;2023-06-22T12:14:17;99043.19;;;40.22;29.39
22753;BME280;11543;43.144;24.684;2023-06-22T12:16:43;99052.59;;;39.85;30.56
22753;BME280;11543;43.144;24.684;2023-06-22T12:19:10;99053.03;;;39.45;31.72
22753;BME280;11543;43.144;24.684;2023-06-22T12:21:37;99050.84;;;39.30;30.49
22753;BME280;11543;43.144;24.684;2023-06-22T12:24:03;99049.03;;;38.87;31.84
22753;BME280;11543;43.144;24.684;2023-06-22T12:26:28;99028.03;;;38.55;32.86
22753;BME280;11543;43.144;24.684;2023-06-22T12:28:54;99048.13;;;38.66;32.78
22753;BME280;11543;43.144;24.684;2023-06-22T12:31:19;99033.97;;;38.62;31.78
22753;BME280;11543;43.144;24.684;2023-06-22T12:33:45;99034.63;;;38.50;33.16
22753;BME280;11543;43.144;24.684;2023-06-22T12:36:10;99026.03;;;38.55;30.32
22753;BME280;11543;43.144;24.684;2023-06-22T12:38:37;99044.00;;;38.72;30.84
22753;BME280;11543;43.144;24.684;2023-06-22T12:41:02;99043.50;;;38.70;32.37
22753;BME280;11543;43.144;24.684;2023-06-22T12:43:28;99025.47;;;38.79;31.19
22753;BME280;11543;43.144;24.684;2023-06-22T12:45:56;99024.66;;;38.79;31.08
22753;BME280;11543;43.144;24.684;2023-06-22T12:48:22;99032.97;;;38.67;30.32
22753;BME280;11543;43.144;24.684;2023-06-22T12:50:48;99011.78;;;38.78;29.88
22753;BME280;11543;43.144;24.684;2023-06-22T12:53:13;99021.56;;;39.01;28.53
22753;BME280;11543;43.144;24.684;2023-06-22T12:55:40;99006.63;;;38.88;28.83
22753;BME280;11543;43.144;24.684;2023-06-22T12:58:05;99010.44;;;38.84;29.28
22753;BME280;11543;43.144;24.684;2023-06-22T13:00:31;99016.44;;;38.74;29.24
22753;BME280;11543;43.144;24.684;2023-06-22T13:02:56;99013.72;;;38.39;30.71
22753;BME280;11543;43.144;24.684;2023-06-22T13:05:22;99003.06;;;38.24;31.01
22753;BME280;11543;43.144;24.684;2023-06-22T13:07:48;98999.59;;;38.01;30.68
22753;BME280;11543;43.144;24.684;2023-06-22T13:10:13;99009.03;;;37.79;31.39
22753;BME280;11543;43.144;24.684;2023-06-22T13:12:40;98995.50;;;37.47;32.19
22753;BME280;11543;43.144;24.684;2023-06-22T13:15:06;99005.47;;;37.22;32.20
22753;BME280;11543;43.144;24.684;2023-06-22T13:17:31;99016.59;;;36.96;33.48
22753;BME280;11543;43.144;24.684;2023-06-22T13:19:59;99008.56;;;36.63;34.16
22753;BME280;11543;43.144;24.684;2023-06-22T13:22:34;99022.47;;;36.46;34.89
22753;BME280;11543;43.144;24.684;2023-06-22T13:25:09;99015.97;;;36.15;35.62
22753;BME280;11543;43.144;24.684;2023-06-22T13:27:40;99007.88;;;35.82;36.75
22753;BME280;11543;43.144;24.684;2023-06-22T13:30:06;99006.28;;;35.54;36.98
22753;BME280;11543;43.144;24.684;2023-06-22T13:32:32;99007.47;;;35.25;37.48
22753;BME280;11543;43.144;24.684;2023-06-22T13:34:57;99011.13;;;34.98;38.45
22753;BME280;11543;43.144;24.684;2023-06-22T13:37:23;99033.84;;;34.78;39.40
22753;BME280;11543;43.144;24.684;2023-06-22T13:39:48;99012.53;;;34.41;39.83
22753;BME280;11543;43.144;24.684;2023-06-22T13:42:14;99016.78;;;34.19;39.88
22753;BME280;11543;43.144;24.684;2023-06-22T13:44:39;99018.97;;;33.90;39.56
22753;BME280;11543;43.144;24.684;2023-06-22T13:47:05;99012.19;;;33.59;40.01
22753;BME280;11543;43.144;24.684;2023-06-22T13:49:31;99018.50;;;33.45;40.80
22753;BME280;11543;43.144;24.684;2023-06-22T13:51:57;99017.91;;;33.30;41.47
22753;BME280;11543;43.144;24.684;2023-06-22T13:54:24;99018.28;;;32.99;41.38
22753;BME280;11543;43.144;24.684;2023-06-22T13:56:49;99013.34;;;32.67;41.12
22753;BME280;11543;43.144;24.684;2023-06-22T13:59:15;99028.00;;;32.49;41.31
22753;BME280;11543;43.144;24.684;2023-06-22T14:01:43;99027.09;;;32.29;41.74
22753;BME280;11543;43.144;24.684;2023-06-22T14:04:10;99031.69;;;32.10;42.01
22753;BME280;11543;43.144;24.684;2023-06-22T14:06:36;99030.19;;;31.89;43.88
22753;BME280;11543;43.144;24.684;2023-06-22T14:09:01;99033.38;;;31.72;44.07
22753;BME280;11543;43.144;24.684;2023-06-22T14:11:27;99029.31;;;31.54;44.83
22753;BME280;11543;43.144;24.684;2023-06-22T14:13:52;99038.81;;;31.43;45.33
22753;BME280;11543;43.144;24.684;2023-06-22T14:16:18;99028.34;;;31.30;45.86
22753;BME280;11543;43.144;24.684;2023-06-22T14:18:44;99050.00;;;31.23;47.72
22753;BME280;11543;43.144;24.684;2023-06-22T14:21:10;99045.00;;;31.20;47.64
22753;BME280;11543;43.144;24.684;2023-06-22T14:23:36;99046.13;;;31.24;47.92
22753;BME280;11543;43.144;24.684;2023-06-22T14:26:03;99027.28;;;31.16;48.10
22753;BME280;11543;43.144;24.684;2023-06-22T14:28:28;99023.94;;;31.14;48.88
22753;BME280;11543;43.144;24.684;2023-06-22T14:30:54;99018.41;;;31.14;49.54
22753;BME280;11543;43.144;24.684;2023-06-22T14:33:19;99021.75;;;31.16;50.54
22753;BME280;11543;43.144;24.684;2023-06-22T14:35:45;99012.84;;;31.14;51.09
22753;BME280;11543;43.144;24.684;2023-06-22T14:38:11;99005.69;;;31.08;50.72
22753;BME280;11543;43.144;24.684;2023-06-22T14:40:36;99020.66;;;31.06;49.57
22753;BME280;11543;43.144;24.684;2023-06-22T14:43:02;99016.28;;;30.95;49.54
22753;BME280;11543;43.144;24.684;2023-06-22T14:45:27;99017.94;;;30.96;52.15
22753;BME280;11543;43.144;24.684;2023-06-22T14:47:53;98996.91;;;30.90;53.37
22753;BME280;11543;43.144;24.684;2023-06-22T14:50:18;99012.91;;;31.03;54.23
22753;BME280;11543;43.144;24.684;2023-06-22T14:52:44;98999.56;;;31.11;54.82
22753;BME280;11543;43.144;24.684;2023-06-22T14:55:09;99006.78;;;31.17;54.54
22753;BME280;11543;43.144;24.684;2023-06-22T14:57:35;98998.16;;;31.18;52.66
22753;BME280;11543;43.144;24.684;2023-06-22T15:00:00;98992.88;;;31.27;51.48
22753;BME280;11543;43.144;24.684;2023-06-22T15:02:27;98994.75;;;31.36;49.93
22753;BME280;11543;43.144;24.684;2023-06-22T15:04:53;98976.13;;;31.42;48.76
22753;BME280;11543;43.144;24.684;2023-06-22T15:07:19;98985.44;;;31.61;48.28
22753;BME280;11543;43.144;24.684;2023-06-22T15:09:45;98964.31;;;31.65;48.95
22753;BME280;11543;43.144;24.684;2023-06-22T15:12:11;98964.75;;;31.83;48.85
22753;BME280;11543;43.144;24.684;2023-06-22T15:14:40;98976.72;;;32.07;49.29
22753;BME280;11543;43.144;24.684;2023-06-22T15:17:07;98970.50;;;32.20;47.49
22753;BME280;11543;43.144;24.684;2023-06-22T15:19:36;98968.13;;;32.38;46.55
22753;BME280;11543;43.144;24.684;2023-06-22T15:22:06;98966.19;;;32.62;45.57
22753;BME280;11543;43.144;24.684;2023-06-22T15:24:34;98951.63;;;32.70;45.63
22753;BME280;11543;43.144;24.684;2023-06-22T15:26:59;98952.06;;;32.82;44.97
22753;BME280;11543;43.144;24.684;2023-06-22T15:29:27;98963.38;;;33.10;44.71
22753;BME280;11543;43.144;24.684;2023-06-22T15:31:53;98966.94;;;33.34;44.06
22753;BME280;11543;43.144;24.684;2023-06-22T15:34:19;98965.56;;;33.50;43.25
22753;BME280;11543;43.144;24.684;2023-06-22T15:36:45;98971.41;;;33.68;41.42
22753;BME280;11543;43.144;24.684;2023-06-22T15:39:13;98961.75;;;33.79;41.06
22753;BME280;11543;43.144;24.684;2023-06-22T15:41:40;98971.81;;;34.12;41.04
22753;BME280;11543;43.144;24.684;2023-06-22T15:44:09;98966.47;;;34.30;41.29
22753;BME280;11543;43.144;24.684;2023-06-22T15:46:34;98961.97;;;34.47;40.65
22753;BME280;11543;43.144;24.684;2023-06-22T15:49:00;98964.13;;;34.50;39.09
22753;BME280;11543;43.144;24.684;2023-06-22T15:51:26;98968.56;;;34.65;39.23
22753;BME280;11543;43.144;24.684;2023-06-22T15:53:55;98970.03;;;34.76;39.26
22753;BME280;11543;43.144;24.684;2023-06-22T15:56:21;98982.22;;;34.94;39.66
22753;BME280;11543;43.144;24.684;2023-06-22T15:58:54;98972.09;;;34.98;37.84
22753;BME280;11543;43.144;24.684;2023-06-22T16:01:21;98963.63;;;35.03;39.15
22753;BME280;11543;43.144;24.684;2023-06-22T16:03:50;98968.56;;;35.06;39.37
22753;BME280;11543;43.144;24.684;2023-06-22T16:06:16;98977.13;;;35.10;39.71
22753;BME280;11543;43.144;24.684;2023-06-22T16:08:41;98976.22;;;35.01;40.08
22753;BME280;11543;43.144;24.684;2023-06-22T16:11:07;98983.84;;;35.09;40.86
22753;BME280;11543;43.144;24.684;2023-06-22T16:13:33;98978.78;;;35.11;41.90
22753;BME280;11543;43.144;24.684;2023-06-22T16:15:58;98976.63;;;35.08;41.65
22753;BME280;11543;43.144;24.684;2023-06-22T16:18:24;98971.91;;;34.95;40.11
22753;BME280;11543;43.144;24.684;2023-06-22T16:20:49;98980.38;;;34.90;39.82
22753;BME280;11543;43.144;24.684;2023-06-22T16:23:15;98978.84;;;34.84;38.75
22753;BME280;11543;43.144;24.684;2023-06-22T16:25:42;98985.94;;;34.76;38.70
22753;BME280;11543;43.144;24.684;2023-06-22T16:28:08;98992.75;;;34.70;38.44
22753;BME280;11543;43.144;24.684;2023-06-22T16:30:34;98973.72;;;34.58;38.68
22753;BME280;11543;43.144;24.684;2023-06-22T16:33:00;98987.16;;;34.56;38.84
22753;BME280;11543;43.144;24.684;2023-06-22T16:35:28;98986.72;;;34.49;40.17
22753;BME280;11543;43.144;24.684;2023-06-22T16:37:54;98982.19;;;34.39;41.64
22753;BME280;11543;43.144;24.684;2023-06-22T16:40:21;98969.97;;;34.22;42.46
22753;BME280;11543;43.144;24.684;2023-06-22T16:42:47;98991.19;;;34.17;42.61
22753;BME280;11543;43.144;24.684;2023-06-22T16:45:14;98983.56;;;34.09;43.37
22753;BME280;11543;43.144;24.684;2023-06-22T16:47:41;98993.44;;;34.02;43.71
22753;BME280;11543;43.144;24.684;2023-06-22T16:50:09;98996.09;;;33.93;44.48
22753;BME280;11543;43.144;24.684;2023-06-22T16:52:35;98982.97;;;33.75;45.76
22753;BME280;11543;43.144;24.684;2023-06-22T16:55:04;99008.03;;;33.75;46.60
22753;BME280;11543;43.144;24.684;2023-06-22T16:57:30;98988.88;;;33.54;46.22
22753;BME280;11543;43.144;24.684;2023-06-22T16:59:56;98979.56;;;33.45;45.86
22753;BME280;11543;43.144;24.684;2023-06-22T17:02:23;99000.09;;;33.49;46.20
22753;BME280;11543;43.144;24.684;2023-06-22T17:04:52;98999.13;;;33.40;46.31
22753;BME280;11543;43.144;24.684;2023-06-22T17:07:20;98996.41;;;33.35;46.20
22753;BME280;11543;43.144;24.684;2023-06-22T17:09:47;99013.16;;;33.30;46.64
22753;BME280;11543;43.144;24.684;2023-06-22T17:12:13;98990.88;;;33.11;47.69
22753;BME280;11543;43.144;24.684;2023-06-22T17:14:40;99004.78;;;33.11;48.39
22753;BME280;11543;43.144;24.684;2023-06-22T17:17:06;98996.81;;;33.05;48.67
22753;BME280;11543;43.144;24.684;2023-06-22T17:19:32;99000.00;;;32.93;48.97
22753;BME280;11543;43.144;24.684;2023-06-22T17:21:57;98985.09;;;32.84;49.53
22753;BME280;11543;43.144;24.684;2023-06-22T17:24:24;98991.03;;;32.77;50.07
22753;BME280;11543;43.144;24.684;2023-06-22T17:26:54;99007.69;;;32.77;50.74
22753;BME280;11543;43.144;24.684;2023-06-22T17:29:19;98981.78;;;32.58;51.21
22753;BME280;11543;43.144;24.684;2023-06-22T17:31:45;98977.19;;;32.48;51.01
22753;BME280;11543;43.144;24.684;2023-06-22T17:34:17;99001.88;;;32.50;50.90
22753;BME280;11543;43.144;24.684;2023-06-22T17:36:46;98998.69;;;32.38;51.54
22753;BME280;11543;43.144;24.684;2023-06-22T17:39:18;98998.78;;;32.27;52.06
22753;BME280;11543;43.144;24.684;2023-06-22T17:41:47;98989.41;;;32.18;52.33
22753;BME280;11543;43.144;24.684;2023-06-22T17:44:13;98995.06;;;32.08;52.33
22753;BME280;11543;43.144;24.684;2023-06-22T17:46:42;98984.91;;;31.93;52.28
22753;BME280;11543;43.144;24.684;2023-06-22T17:49:09;98987.03;;;31.73;53.23
22753;BME280;11543;43.144;24.684;2023-06-22T17:51:39;98969.94;;;31.55;53.33
22753;BME280;11543;43.144;24.684;2023-06-22T17:54:04;98984.84;;;31.64;53.26
22753;BME280;11543;43.144;24.684;2023-06-22T17:56:31;98984.94;;;31.54;53.15
22753;BME280;11543;43.144;24.684;2023-06-22T17:58:57;98986.69;;;31.40;54.00
22753;BME280;11543;43.144;24.684;2023-06-22T18:01:34;98994.00;;;31.26;54.60
22753;BME280;11543;43.144;24.684;2023-06-22T18:04:10;98994.28;;;31.19;54.50
22753;BME280;11543;43.144;24.684;2023-06-22T18:06:38;98989.03;;;31.13;54.19
22753;BME280;11543;43.144;24.684;2023-06-22T18:09:06;98999.03;;;31.09;54.18
22753;BME280;11543;43.144;24.684;2023-06-22T18:14:04;98990.72;;;31.09;53.79
22753;BME280;11543;43.144;24.684;2023-06-22T18:16:32;99004.31;;;31.05;53.90
22753;BME280;11543;43.144;24.684;2023-06-22T18:18:59;99009.59;;;31.01;53.59
22753;BME280;11543;43.144;24.684;2023-06-22T18:21:25;99007.16;;;30.90;53.64
22753;BME280;11543;43.144;24.684;2023-06-22T18:23:52;99019.66;;;30.82;54.26
22753;BME280;11543;43.144;24.684;2023-06-22T18:26:22;98997.56;;;30.62;54.51
22753;BME280;11543;43.144;24.684;2023-06-22T18:28:50;99006.97;;;30.56;55.15
22753;BME280;11543;43.144;24.684;2023-06-22T18:31:18;99018.63;;;30.63;54.59
22753;BME280;11543;43.144;24.684;2023-06-22T18:33:44;99013.09;;;30.53;54.43
22753;BME280;11543;43.144;24.684;2023-06-22T18:36:10;99022.50;;;30.52;54.96
22753;BME280;11543;43.144;24.684;2023-06-22T18:38:39;99017.53;;;30.38;54.96
22753;BME280;11543;43.144;24.684;2023-06-22T18:41:05;99019.75;;;30.26;55.99
22753;BME280;11543;43.144;24.684;2023-06-22T18:43:37;99012.56;;;30.15;55.73
22753;BME280;11543;43.144;24.684;2023-06-22T18:46:37;99029.44;;;30.19;55.53
22753;BME280;11543;43.144;24.684;2023-06-22T18:51:56;99035.28;;;30.07;55.92